createdAt,value
2019-01-10T00:00:02.348Z,21.37
2019-01-10T00:01:11.778Z,21.35
2019-01-10T00:02:20.491Z,21.37
2019-01-10T00:03:30.460Z,21.32
2019-01-10T00:04:39.408Z,21.31
2019-01-10T00:05:48.572Z,21.31
2019-01-10T00:06:58.247Z,21.34
2019-01-10T00:08:07.687Z,21.34
2019-01-10T00:09:16.848Z,21.27
2019-01-10T00:10:26.281Z,21.22
2019-01-10T00:11:35.723Z,21.25
2019-01-10T00:12:44.907Z,21.24
2019-01-10T00:13:54.813Z,21.25
2019-01-10T00:15:04.096Z,21.17
2019-01-10T00:16:13.514Z,21.28
2019-01-10T00:17:22.484Z,21.16
2019-01-10T00:18:31.407Z,21.24
2019-01-10T00:19:40.827Z,21.13
2019-01-10T00:20:49.507Z,21.14
2019-01-10T00:21:58.689Z,21.12
2019-01-10T00:23:08.107Z,21.1
2019-01-10T00:24:17.046Z,21.16
2019-01-10T00:25:26.039Z,21.13
2019-01-10T00:26:35.217Z,21.16
2019-01-10T00:27:43.894Z,21.09
2019-01-10T00:28:52.828Z,21.1
2019-01-10T00:30:01.762Z,21.14
2019-01-10T00:31:11.552Z,21.06
2019-01-10T00:32:20.724Z,21.14
2019-01-10T00:33:30.153Z,21.19
2019-01-10T00:34:39.332Z,21.06
2019-01-10T00:35:48.267Z,21.1
2019-01-10T00:36:58.193Z,21.13
2019-01-10T00:38:07.625Z,21.04
2019-01-10T00:39:17.290Z,21.03
2019-01-10T00:40:26.831Z,21.07
2019-01-10T00:41:36.326Z,21.07
2019-01-10T00:42:54.101Z,21.04
2019-01-10T00:44:03.027Z,21.1
2019-01-10T00:45:12.721Z,21.06
2019-01-10T00:46:21.913Z,21.03
2019-01-10T00:47:31.629Z,20.98
2019-01-10T00:48:40.789Z,20.95
2019-01-10T00:49:50.294Z,20.98
2019-01-10T00:50:59.715Z,20.95
2019-01-10T00:52:09.440Z,20.95
2019-01-10T00:53:18.877Z,20.99
2019-01-10T00:54:28.306Z,20.95
2019-01-10T00:55:36.980Z,20.94
2019-01-10T00:56:46.415Z,20.95
2019-01-10T00:57:55.591Z,20.91
2019-01-10T00:59:04.770Z,20.95
2019-01-10T01:00:13.956Z,20.95
2019-01-10T01:01:22.649Z,20.94
2019-01-10T01:02:32.329Z,20.91
2019-01-10T01:03:41.036Z,20.94
2019-01-10T01:04:50.723Z,20.87
2019-01-10T01:05:59.922Z,20.91
2019-01-10T01:07:09.096Z,20.92
2019-01-10T01:08:18.305Z,20.95
2019-01-10T01:09:28.008Z,20.88
2019-01-10T01:10:37.190Z,20.89
2019-01-10T01:11:46.628Z,20.82
2019-01-10T01:13:02.918Z,20.87
2019-01-10T01:14:11.857Z,20.87
2019-01-10T01:15:20.794Z,20.87
2019-01-10T01:16:30.228Z,20.84
2019-01-10T01:17:39.665Z,20.85
2019-01-10T01:18:48.825Z,20.88
2019-01-10T01:19:57.992Z,20.84
2019-01-10T01:21:07.441Z,20.8
2019-01-10T01:22:16.878Z,20.76
2019-01-10T01:23:26.328Z,20.84
2019-01-10T01:24:35.504Z,20.79
2019-01-10T01:25:44.691Z,20.73
2019-01-10T01:26:54.144Z,20.84
2019-01-10T01:28:03.603Z,20.74
2019-01-10T01:29:12.780Z,20.79
2019-01-10T01:30:23.822Z,20.84
2019-01-10T01:31:32.991Z,20.79
2019-01-10T01:32:42.168Z,20.77
2019-01-10T01:33:51.352Z,20.79
2019-01-10T01:35:00.538Z,20.85
2019-01-10T01:36:09.448Z,20.85
2019-01-10T01:37:19.105Z,20.82
2019-01-10T01:38:28.047Z,20.85
2019-01-10T01:39:37.468Z,20.84
2019-01-10T01:40:46.643Z,20.79
2019-01-10T01:41:56.107Z,20.8
2019-01-10T01:43:11.958Z,20.73
2019-01-10T01:44:21.150Z,20.85
2019-01-10T01:45:30.325Z,20.76
2019-01-10T01:46:39.510Z,20.84
2019-01-10T01:47:48.931Z,20.74
2019-01-10T01:48:58.207Z,20.72
2019-01-10T01:50:07.882Z,20.76
2019-01-10T01:51:17.570Z,20.79
2019-01-10T01:52:26.523Z,20.7
2019-01-10T01:53:35.688Z,20.67
2019-01-10T01:54:44.871Z,20.67
2019-01-10T01:55:54.050Z,20.7
2019-01-10T01:57:02.989Z,20.7
2019-01-10T01:58:12.183Z,20.7
2019-01-10T01:59:21.611Z,20.69
2019-01-10T02:00:30.531Z,20.69
2019-01-10T02:01:39.715Z,20.72
2019-01-10T02:02:49.147Z,20.72
2019-01-10T02:03:59.171Z,20.69
2019-01-10T02:05:08.475Z,20.74
2019-01-10T02:06:17.672Z,20.59
2019-01-10T02:07:27.099Z,20.74
2019-01-10T02:08:36.756Z,20.69
2019-01-10T02:09:45.682Z,20.73
2019-01-10T02:10:55.620Z,20.69
2019-01-10T02:12:04.576Z,20.7
2019-01-10T02:13:21.411Z,20.62
2019-01-10T02:14:31.090Z,20.7
2019-01-10T02:15:40.762Z,20.66
2019-01-10T02:16:50.209Z,20.61
2019-01-10T02:17:59.142Z,20.61
2019-01-10T02:19:08.415Z,20.62
2019-01-10T02:20:17.855Z,20.67
2019-01-10T02:21:27.299Z,20.57
2019-01-10T02:22:38.563Z,20.62
2019-01-10T02:23:47.357Z,20.61
2019-01-10T02:24:56.774Z,20.59
2019-01-10T02:26:06.197Z,20.54
2019-01-10T02:27:15.406Z,20.5
2019-01-10T02:28:24.831Z,20.57
2019-01-10T02:29:36.017Z,20.52
2019-01-10T02:30:47.154Z,20.55
2019-01-10T02:31:56.579Z,20.43
2019-01-10T02:33:06.300Z,20.43
2019-01-10T02:34:15.723Z,20.41
2019-01-10T02:35:24.940Z,20.55
2019-01-10T02:36:34.662Z,20.51
2019-01-10T02:37:44.120Z,20.39
2019-01-10T02:38:52.798Z,20.51
2019-01-10T02:40:02.237Z,20.52
2019-01-10T02:41:11.673Z,20.54
2019-01-10T02:42:20.611Z,20.47
2019-01-10T02:43:31.603Z,20.5
2019-01-10T02:44:40.798Z,20.55
2019-01-10T02:45:50.751Z,20.42
2019-01-10T02:47:00.696Z,20.5
2019-01-10T02:48:10.119Z,20.39
2019-01-10T02:49:19.569Z,20.39
2019-01-10T02:50:29.279Z,20.41
2019-01-10T02:51:38.205Z,20.38
2019-01-10T02:52:47.398Z,20.35
2019-01-10T02:53:57.336Z,20.32
2019-01-10T02:55:06.326Z,20.41
2019-01-10T02:56:16.023Z,20.42
2019-01-10T02:57:25.455Z,20.41
2019-01-10T02:58:34.889Z,20.35
2019-01-10T02:59:44.074Z,20.41
2019-01-10T03:00:53.774Z,20.38
2019-01-10T03:02:03.196Z,20.38
2019-01-10T03:03:12.618Z,20.38
2019-01-10T03:04:21.889Z,20.35
2019-01-10T03:05:31.068Z,20.33
2019-01-10T03:06:40.002Z,20.39
2019-01-10T03:07:49.231Z,20.41
2019-01-10T03:08:58.671Z,20.36
2019-01-10T03:10:08.327Z,20.35
2019-01-10T03:11:17.522Z,20.39
2019-01-10T03:12:26.948Z,20.28
2019-01-10T03:13:41.802Z,20.26
2019-01-10T03:14:51.743Z,20.31
2019-01-10T03:16:01.421Z,20.29
2019-01-10T03:17:10.878Z,20.33
2019-01-10T03:18:20.549Z,20.24
2019-01-10T03:19:30.002Z,20.29
2019-01-10T03:20:39.436Z,20.28
2019-01-10T03:21:49.355Z,20.26
2019-01-10T03:22:59.067Z,20.32
2019-01-10T03:24:08.511Z,20.32
2019-01-10T03:25:17.710Z,20.2
2019-01-10T03:26:27.189Z,20.2
2019-01-10T03:27:36.910Z,20.17
2019-01-10T03:28:45.582Z,20.17
2019-01-10T03:29:54.759Z,20.24
2019-01-10T03:31:04.469Z,20.16
2019-01-10T03:32:14.497Z,20.21
2019-01-10T03:33:24.439Z,20.24
2019-01-10T03:34:34.414Z,20.21
2019-01-10T03:35:44.119Z,20.18
2019-01-10T03:36:53.531Z,20.2
2019-01-10T03:38:02.988Z,20.23
2019-01-10T03:39:12.698Z,20.16
2019-01-10T03:40:22.142Z,20.18
2019-01-10T03:41:31.071Z,20.21
2019-01-10T03:42:40.497Z,20.24
2019-01-10T03:43:52.145Z,20.26
2019-01-10T03:45:01.840Z,20.2
2019-01-10T03:46:11.565Z,20.18
2019-01-10T03:47:21.262Z,20.17
2019-01-10T03:48:31.190Z,20.18
2019-01-10T03:49:40.145Z,20.21
2019-01-10T03:50:49.328Z,20.18
2019-01-10T03:51:58.551Z,20.16
2019-01-10T03:53:07.777Z,20.18
2019-01-10T03:54:17.227Z,20.16
2019-01-10T03:55:26.675Z,20.17
2019-01-10T03:56:36.104Z,20.16
2019-01-10T03:57:45.795Z,20.11
2019-01-10T03:58:54.472Z,20.21
2019-01-10T04:00:04.162Z,20.14
2019-01-10T04:01:13.357Z,20.13
2019-01-10T04:02:23.097Z,20.1
2019-01-10T04:03:32.779Z,20.11
2019-01-10T04:04:42.201Z,20.18
2019-01-10T04:05:51.635Z,20.1
2019-01-10T04:07:01.061Z,20.14
2019-01-10T04:08:10.778Z,20.14
2019-01-10T04:09:20.477Z,20.06
2019-01-10T04:10:29.662Z,20.14
2019-01-10T04:11:39.104Z,20.16
2019-01-10T04:12:48.542Z,20.2
2019-01-10T04:14:02.294Z,20.06
2019-01-10T04:15:11.473Z,20.05
2019-01-10T04:16:20.901Z,20.11
2019-01-10T04:17:30.339Z,20.11
2019-01-10T04:18:39.540Z,20.1
2019-01-10T04:19:49.563Z,20.13
2019-01-10T04:21:00.064Z,20.17
2019-01-10T04:22:09.269Z,20.1
2019-01-10T04:23:17.950Z,20.08
2019-01-10T04:24:27.381Z,20.08
2019-01-10T04:25:36.800Z,20.05
2019-01-10T04:26:47.503Z,20.1
2019-01-10T04:27:56.803Z,20.11
2019-01-10T04:29:06.324Z,20.06
2019-01-10T04:30:15.519Z,20.16
2019-01-10T04:31:24.948Z,20.11
2019-01-10T04:32:34.644Z,20.11
2019-01-10T04:33:43.820Z,20.08
2019-01-10T04:34:53.010Z,20.05
2019-01-10T04:36:02.697Z,20.02
2019-01-10T04:37:12.486Z,20.02
2019-01-10T04:38:21.929Z,20.05
2019-01-10T04:39:31.354Z,20.01
2019-01-10T04:40:41.036Z,20.03
2019-01-10T04:41:49.978Z,20.02
2019-01-10T04:42:59.405Z,19.96
2019-01-10T04:44:11.966Z,20.01
2019-01-10T04:45:20.690Z,20.01
2019-01-10T04:46:30.123Z,19.98
2019-01-10T04:47:39.551Z,19.99
2019-01-10T04:48:49.256Z,20.03
2019-01-10T04:49:59.197Z,20.01
2019-01-10T04:51:08.646Z,19.98
2019-01-10T04:52:18.350Z,19.96
2019-01-10T04:53:29.230Z,19.96
2019-01-10T04:54:42.882Z,20.01
2019-01-10T04:55:52.327Z,19.98
2019-01-10T04:57:01.611Z,19.96
2019-01-10T04:58:11.184Z,19.99
2019-01-10T04:59:20.391Z,19.94
2019-01-10T05:00:30.317Z,19.96
2019-01-10T05:01:40.008Z,19.95
2019-01-10T05:02:49.181Z,19.96
2019-01-10T05:03:59.108Z,19.95
2019-01-10T05:05:08.794Z,19.95
2019-01-10T05:06:18.478Z,19.94
2019-01-10T05:07:27.926Z,19.84
2019-01-10T05:08:37.107Z,19.96
2019-01-10T05:09:46.599Z,19.86
2019-01-10T05:10:55.805Z,19.84
2019-01-10T05:12:04.989Z,19.84
2019-01-10T05:13:14.690Z,19.86
2019-01-10T05:14:24.138Z,19.87
2019-01-10T05:15:33.574Z,19.87
2019-01-10T05:16:42.861Z,19.95
2019-01-10T05:17:52.548Z,19.86
2019-01-10T05:19:01.755Z,19.91
2019-01-10T05:20:10.927Z,19.84
2019-01-10T05:21:20.872Z,19.84
2019-01-10T05:22:30.315Z,19.88
2019-01-10T05:23:39.752Z,19.86
2019-01-10T05:24:49.202Z,19.88
2019-01-10T05:25:59.136Z,19.81
2019-01-10T05:27:08.085Z,19.83
2019-01-10T05:28:17.527Z,19.87
2019-01-10T05:29:27.233Z,19.83
2019-01-10T05:30:36.427Z,19.83
2019-01-10T05:31:45.612Z,19.83
2019-01-10T05:32:54.796Z,19.84
2019-01-10T05:34:04.226Z,19.8
2019-01-10T05:35:13.404Z,19.78
2019-01-10T05:36:22.595Z,19.76
2019-01-10T05:37:32.023Z,19.81
2019-01-10T05:38:41.446Z,19.76
2019-01-10T05:39:52.050Z,19.83
2019-01-10T05:41:01.468Z,19.83
2019-01-10T05:42:13.496Z,19.83
2019-01-10T05:43:23.352Z,19.8
2019-01-10T05:44:33.036Z,19.77
2019-01-10T05:45:42.478Z,19.73
2019-01-10T05:46:53.480Z,19.8
2019-01-10T05:48:03.187Z,19.77
2019-01-10T05:49:12.613Z,19.8
2019-01-10T05:50:22.992Z,19.78
2019-01-10T05:51:32.949Z,19.8
2019-01-10T05:52:42.683Z,19.78
2019-01-10T05:53:52.645Z,19.8
2019-01-10T05:55:02.743Z,19.83
2019-01-10T05:56:20.512Z,19.8
2019-01-10T05:57:29.948Z,19.74
2019-01-10T05:58:38.905Z,19.87
2019-01-10T05:59:49.360Z,19.84
2019-01-10T06:00:58.599Z,19.8
2019-01-10T06:02:08.023Z,19.71
2019-01-10T06:03:17.198Z,19.76
2019-01-10T06:04:26.391Z,19.81
2019-01-10T06:05:35.819Z,19.8
2019-01-10T06:06:44.752Z,19.81
2019-01-10T06:07:54.171Z,19.78
2019-01-10T06:09:03.615Z,19.8
2019-01-10T06:10:12.791Z,19.78
2019-01-10T06:11:22.462Z,19.83
2019-01-10T06:12:31.396Z,19.83
2019-01-10T06:13:40.820Z,19.81
2019-01-10T06:14:50.263Z,19.83
2019-01-10T06:15:59.438Z,19.86
2019-01-10T06:17:09.387Z,19.88
2019-01-10T06:18:18.709Z,19.81
2019-01-10T06:19:31.828Z,19.83
2019-01-10T06:20:41.246Z,19.86
2019-01-10T06:21:50.766Z,19.86
2019-01-10T06:23:00.442Z,19.77
2019-01-10T06:24:09.628Z,19.87
2019-01-10T06:25:18.845Z,19.84
2019-01-10T06:26:28.532Z,19.77
2019-01-10T06:27:38.234Z,19.8
2019-01-10T06:28:50.152Z,19.83
2019-01-10T06:29:59.086Z,19.84
2019-01-10T06:31:08.523Z,19.81
2019-01-10T06:32:17.691Z,19.8
2019-01-10T06:33:26.863Z,19.78
2019-01-10T06:34:36.609Z,19.77
2019-01-10T06:35:45.888Z,19.8
2019-01-10T06:36:55.432Z,19.8
2019-01-10T06:38:04.878Z,19.77
2019-01-10T06:39:14.322Z,19.69
2019-01-10T06:40:27.453Z,19.76
2019-01-10T06:41:36.437Z,19.74
2019-01-10T06:42:45.393Z,19.69
2019-01-10T06:43:54.849Z,19.69
2019-01-10T06:45:04.294Z,19.69
2019-01-10T06:46:12.979Z,19.65
2019-01-10T06:47:21.922Z,19.68
2019-01-10T06:48:31.343Z,19.71
2019-01-10T06:49:40.511Z,19.65
2019-01-10T06:50:49.918Z,19.59
2019-01-10T06:51:59.364Z,19.62
2019-01-10T06:53:08.563Z,19.51
2019-01-10T06:54:17.997Z,19.56
2019-01-10T06:55:27.214Z,19.55
2019-01-10T06:56:36.751Z,19.5
2019-01-10T06:57:45.946Z,19.62
2019-01-10T06:58:54.861Z,19.56
2019-01-10T07:00:04.301Z,19.61
2019-01-10T07:01:13.483Z,19.59
2019-01-10T07:02:22.907Z,19.63
2019-01-10T07:03:32.338Z,19.71
2019-01-10T07:04:41.514Z,19.83
2019-01-10T07:05:50.941Z,19.92
2019-01-10T07:07:00.614Z,20.02
2019-01-10T07:08:09.809Z,20.08
2019-01-10T07:09:18.976Z,20.18
2019-01-10T07:10:31.452Z,20.32
2019-01-10T07:11:40.621Z,20.39
2019-01-10T07:12:49.796Z,20.41
2019-01-10T07:13:59.211Z,20.58
2019-01-10T07:15:08.393Z,20.61
2019-01-10T07:16:17.597Z,20.67
2019-01-10T07:17:26.286Z,20.77
2019-01-10T07:18:35.978Z,20.85
2019-01-10T07:19:44.997Z,20.8
2019-01-10T07:20:54.719Z,20.92
2019-01-10T07:22:04.168Z,20.98
2019-01-10T07:23:13.617Z,21.07
2019-01-10T07:24:23.419Z,21.09
2019-01-10T07:25:32.855Z,21.17
2019-01-10T07:26:42.549Z,21.24
2019-01-10T07:27:51.502Z,21.29
2019-01-10T07:29:01.789Z,21.37
2019-01-10T07:30:11.236Z,21.38
2019-01-10T07:31:21.192Z,21.4
2019-01-10T07:32:30.404Z,21.54
2019-01-10T07:33:40.379Z,21.58
2019-01-10T07:34:50.331Z,21.61
2019-01-10T07:35:59.874Z,21.62
2019-01-10T07:37:17.502Z,21.67
2019-01-10T07:38:26.960Z,21.75
2019-01-10T07:39:36.696Z,21.77
2019-01-10T07:40:46.127Z,21.9
2019-01-10T07:41:55.599Z,21.79
2019-01-10T07:43:05.286Z,21.86
2019-01-10T07:44:14.751Z,21.94
2019-01-10T07:45:24.220Z,21.9
2019-01-10T07:46:33.431Z,22.03
2019-01-10T07:47:43.124Z,22.03
2019-01-10T07:48:52.810Z,22.05
2019-01-10T07:50:02.247Z,21.98
2019-01-10T07:51:11.454Z,21.98
2019-01-10T07:52:20.387Z,21.94
2019-01-10T07:53:30.324Z,21.99
2019-01-10T07:54:39.785Z,21.96
2019-01-10T07:55:49.501Z,21.99
2019-01-10T07:56:58.679Z,22.02
2019-01-10T07:58:08.147Z,21.98
2019-01-10T07:59:17.096Z,22
2019-01-10T08:00:26.292Z,22
2019-01-10T08:01:35.538Z,21.96
2019-01-10T08:02:44.511Z,22
2019-01-10T08:03:53.726Z,21.99
2019-01-10T08:05:02.906Z,21.91
2019-01-10T08:06:12.107Z,21.92
2019-01-10T08:07:21.550Z,22
2019-01-10T08:08:30.261Z,21.96
2019-01-10T08:09:39.470Z,21.88
2019-01-10T08:10:48.665Z,21.91
2019-01-10T08:12:05.251Z,21.92
2019-01-10T08:13:14.455Z,21.92
2019-01-10T08:14:24.651Z,21.88
2019-01-10T08:15:34.356Z,21.9
2019-01-10T08:16:44.040Z,21.77
2019-01-10T08:17:53.227Z,21.84
2019-01-10T08:19:02.168Z,21.82
2019-01-10T08:20:12.146Z,21.74
2019-01-10T08:21:22.635Z,21.71
2019-01-10T08:22:32.848Z,21.77
2019-01-10T08:23:41.798Z,21.69
2019-01-10T08:24:50.729Z,21.67
2019-01-10T08:26:00.175Z,21.65
2019-01-10T08:27:09.877Z,21.69
2019-01-10T08:28:19.065Z,21.62
2019-01-10T08:29:28.523Z,21.59
2019-01-10T08:30:38.348Z,21.54
2019-01-10T08:31:48.046Z,21.52
2019-01-10T08:32:57.488Z,21.56
2019-01-10T08:34:06.926Z,21.52
2019-01-10T08:35:16.118Z,21.4
2019-01-10T08:36:34.786Z,21.42
2019-01-10T08:37:44.002Z,21.42
2019-01-10T08:38:52.946Z,21.44
2019-01-10T08:40:02.420Z,21.42
2019-01-10T08:41:13.865Z,21.37
2019-01-10T08:42:23.403Z,21.37
2019-01-10T08:43:32.868Z,21.37
2019-01-10T08:44:41.843Z,21.34
2019-01-10T08:45:51.365Z,21.38
2019-01-10T08:47:00.553Z,21.27
2019-01-10T08:48:09.985Z,21.29
2019-01-10T08:49:19.949Z,21.34
2019-01-10T08:50:29.420Z,21.25
2019-01-10T08:51:40.623Z,21.24
2019-01-10T08:52:49.562Z,21.25
2019-01-10T08:53:58.828Z,21.24
2019-01-10T08:55:07.765Z,21.22
2019-01-10T08:56:16.973Z,21.24
2019-01-10T08:57:27.735Z,21.21
2019-01-10T08:58:37.179Z,21.22
2019-01-10T08:59:46.370Z,21.12
2019-01-10T09:00:55.554Z,21.19
2019-01-10T09:02:05.238Z,21.1
2019-01-10T09:03:14.674Z,21.14
2019-01-10T09:04:23.612Z,21.24
2019-01-10T09:05:32.805Z,21.19
2019-01-10T09:06:41.763Z,21.16
2019-01-10T09:07:51.449Z,21.25
2019-01-10T09:09:01.140Z,21.24
2019-01-10T09:10:10.707Z,21.29
2019-01-10T09:11:19.655Z,21.22
2019-01-10T09:12:29.079Z,21.31
2019-01-10T09:13:38.761Z,21.35
2019-01-10T09:14:48.185Z,21.35
2019-01-10T09:15:57.116Z,21.43
2019-01-10T09:17:08.965Z,21.47
2019-01-10T09:18:18.417Z,21.49
2019-01-10T09:19:28.113Z,21.47
2019-01-10T09:20:37.817Z,21.53
2019-01-10T09:21:47.025Z,21.59
2019-01-10T09:22:56.719Z,21.65
2019-01-10T09:24:06.532Z,21.65
2019-01-10T09:25:17.746Z,21.68
2019-01-10T09:26:29.417Z,21.72
2019-01-10T09:27:46.469Z,21.79
2019-01-10T09:28:55.655Z,21.72
2019-01-10T09:30:05.092Z,21.72
2019-01-10T09:31:14.132Z,21.77
2019-01-10T09:32:23.818Z,21.83
2019-01-10T09:33:33.246Z,21.72
2019-01-10T09:34:44.730Z,21.8
2019-01-10T09:35:54.408Z,21.75
2019-01-10T09:37:04.038Z,21.79
2019-01-10T09:38:13.527Z,21.86
2019-01-10T09:39:23.201Z,21.84
2019-01-10T09:40:32.149Z,21.84
2019-01-10T09:41:41.590Z,21.9
2019-01-10T09:42:51.107Z,21.83
2019-01-10T09:44:00.295Z,21.8
2019-01-10T09:45:10.832Z,21.86
2019-01-10T09:46:19.775Z,21.83
2019-01-10T09:47:28.969Z,21.8
2019-01-10T09:48:38.895Z,21.74
2019-01-10T09:49:48.839Z,21.72
2019-01-10T09:50:58.007Z,21.68
2019-01-10T09:52:07.252Z,21.74
2019-01-10T09:53:16.688Z,21.72
2019-01-10T09:54:26.388Z,21.72
2019-01-10T09:55:35.552Z,21.64
2019-01-10T09:56:44.980Z,21.65
2019-01-10T09:57:54.685Z,21.64
2019-01-10T09:59:04.377Z,21.69
2019-01-10T10:00:13.626Z,21.65
2019-01-10T10:01:22.830Z,21.65
2019-01-10T10:02:31.789Z,21.54
2019-01-10T10:03:40.848Z,21.54
2019-01-10T10:04:50.436Z,21.54
2019-01-10T10:06:07.495Z,21.56
2019-01-10T10:07:17.460Z,21.58
2019-01-10T10:08:26.629Z,21.47
2019-01-10T10:09:35.820Z,21.62
2019-01-10T10:10:44.751Z,21.44
2019-01-10T10:11:53.685Z,21.37
2019-01-10T10:13:03.134Z,21.42
2019-01-10T10:14:12.341Z,21.46
2019-01-10T10:15:22.153Z,21.46
2019-01-10T10:16:31.349Z,21.46
2019-01-10T10:17:40.525Z,21.43
2019-01-10T10:18:49.732Z,21.32
2019-01-10T10:19:58.665Z,21.34
2019-01-10T10:21:07.642Z,21.34
2019-01-10T10:22:16.830Z,21.35
2019-01-10T10:23:31.457Z,21.4
2019-01-10T10:24:41.142Z,21.32
2019-01-10T10:25:50.137Z,21.29
2019-01-10T10:26:59.329Z,21.35
2019-01-10T10:28:09.105Z,21.29
2019-01-10T10:29:18.292Z,21.29
2019-01-10T10:30:27.252Z,21.35
2019-01-10T10:31:36.221Z,21.32
2019-01-10T10:32:45.667Z,21.28
2019-01-10T10:33:54.364Z,21.35
2019-01-10T10:35:03.886Z,21.35
2019-01-10T10:36:13.568Z,21.34
2019-01-10T10:37:23.018Z,21.24
2019-01-10T10:38:32.195Z,21.25
2019-01-10T10:39:41.638Z,21.35
2019-01-10T10:40:51.309Z,21.38
2019-01-10T10:42:00.995Z,21.35
2019-01-10T10:43:10.761Z,21.37
2019-01-10T10:44:20.205Z,21.4
2019-01-10T10:45:29.143Z,21.43
2019-01-10T10:46:38.323Z,21.47
2019-01-10T10:47:47.522Z,21.49
2019-01-10T10:48:56.976Z,21.54
2019-01-10T10:50:06.685Z,21.54
2019-01-10T10:51:15.618Z,21.54
2019-01-10T10:52:25.310Z,21.68
2019-01-10T10:53:34.248Z,21.67
2019-01-10T10:54:43.453Z,21.72
2019-01-10T10:55:52.905Z,21.8
2019-01-10T10:57:01.841Z,21.82
2019-01-10T10:58:11.519Z,21.77
2019-01-10T10:59:20.726Z,21.8
2019-01-10T11:00:29.646Z,21.92
2019-01-10T11:01:38.852Z,21.86
2019-01-10T11:02:48.291Z,21.9
2019-01-10T11:03:57.503Z,21.84
2019-01-10T11:05:06.693Z,21.84
2019-01-10T11:06:15.643Z,21.86
2019-01-10T11:07:25.346Z,21.91
2019-01-10T11:08:35.017Z,21.86
2019-01-10T11:09:44.201Z,21.91
2019-01-10T11:10:53.410Z,21.98
2019-01-10T11:12:02.612Z,21.98
2019-01-10T11:13:11.786Z,21.92
2019-01-10T11:14:20.719Z,21.84
2019-01-10T11:15:29.666Z,21.91
2019-01-10T11:16:38.863Z,21.96
2019-01-10T11:17:48.179Z,21.83
2019-01-10T11:18:57.388Z,21.91
2019-01-10T11:20:06.829Z,21.91
2019-01-10T11:21:16.528Z,21.86
2019-01-10T11:22:27.573Z,21.86
2019-01-10T11:23:37.040Z,21.74
2019-01-10T11:24:46.804Z,21.74
2019-01-10T11:25:56.006Z,21.9
2019-01-10T11:27:05.451Z,21.82
2019-01-10T11:28:14.420Z,21.86
2019-01-10T11:29:23.626Z,21.82
2019-01-10T11:30:32.820Z,21.77
2019-01-10T11:31:41.753Z,21.8
2019-01-10T11:32:51.202Z,21.77
2019-01-10T11:34:01.481Z,21.72
2019-01-10T11:35:11.019Z,21.8
2019-01-10T11:36:20.204Z,21.71
2019-01-10T11:37:29.136Z,21.65
2019-01-10T11:38:39.062Z,21.67
2019-01-10T11:39:50.282Z,21.68
2019-01-10T11:40:59.971Z,21.67
2019-01-10T11:42:08.663Z,21.68
2019-01-10T11:43:18.112Z,21.61
2019-01-10T11:44:27.584Z,21.53
2019-01-10T11:45:36.274Z,21.53
2019-01-10T11:46:46.212Z,21.54
2019-01-10T11:47:55.383Z,21.5
2019-01-10T11:49:04.565Z,21.52
2019-01-10T11:50:13.762Z,21.56
2019-01-10T11:51:23.213Z,21.46
2019-01-10T11:52:32.141Z,21.47
2019-01-10T11:53:41.835Z,21.59
2019-01-10T11:54:52.460Z,21.5
2019-01-10T11:56:01.444Z,21.49
2019-01-10T11:57:10.918Z,21.49
2019-01-10T11:58:19.840Z,21.47
2019-01-10T11:59:29.281Z,21.43
2019-01-10T12:00:38.725Z,21.46
2019-01-10T12:01:48.467Z,21.34
2019-01-10T12:02:57.920Z,21.4
2019-01-10T12:04:07.110Z,21.49
2019-01-10T12:05:16.814Z,21.46
2019-01-10T12:06:26.360Z,21.42
2019-01-10T12:07:35.279Z,21.44
2019-01-10T12:08:44.989Z,21.37
2019-01-10T12:09:54.424Z,21.35
2019-01-10T12:11:03.614Z,21.38
2019-01-10T12:12:13.298Z,21.35
2019-01-10T12:13:22.491Z,21.35
2019-01-10T12:14:31.960Z,21.37
2019-01-10T12:15:41.417Z,21.37
2019-01-10T12:16:51.110Z,21.37
2019-01-10T12:18:00.311Z,21.46
2019-01-10T12:19:10.020Z,21.37
2019-01-10T12:20:19.213Z,21.4
2019-01-10T12:21:28.668Z,21.4
2019-01-10T12:22:38.113Z,21.5
2019-01-10T12:23:47.552Z,21.53
2019-01-10T12:24:56.488Z,21.59
2019-01-10T12:26:05.665Z,21.64
2019-01-10T12:27:14.868Z,21.61
2019-01-10T12:28:26.571Z,21.65
2019-01-10T12:29:40.632Z,21.69
2019-01-10T12:30:50.070Z,21.79
2019-01-10T12:31:59.039Z,21.82
2019-01-10T12:33:07.964Z,21.88
2019-01-10T12:34:17.739Z,21.91
2019-01-10T12:35:27.447Z,21.83
2019-01-10T12:36:36.888Z,21.88
2019-01-10T12:37:46.116Z,21.91
2019-01-10T12:38:54.841Z,22
2019-01-10T12:40:04.043Z,22
2019-01-10T12:41:13.477Z,21.96
2019-01-10T12:42:22.961Z,21.98
2019-01-10T12:43:31.888Z,21.82
2019-01-10T12:44:41.336Z,21.98
2019-01-10T12:45:50.764Z,22.02
2019-01-10T12:46:59.701Z,21.99
2019-01-10T12:48:09.641Z,21.9
2019-01-10T12:49:19.122Z,21.99
2019-01-10T12:50:28.064Z,21.96
2019-01-10T12:51:36.818Z,21.94
2019-01-10T12:52:46.013Z,21.91
2019-01-10T12:53:55.716Z,21.98
2019-01-10T12:55:05.079Z,21.99
2019-01-10T12:56:14.786Z,21.98
2019-01-10T12:57:25.957Z,21.94
2019-01-10T12:58:35.660Z,21.9
2019-01-10T12:59:45.147Z,21.92
2019-01-10T13:00:54.581Z,21.9
2019-01-10T13:02:04.741Z,21.94
2019-01-10T13:03:14.768Z,21.91
2019-01-10T13:04:23.730Z,21.86
2019-01-10T13:05:33.434Z,21.9
2019-01-10T13:06:42.625Z,21.72
2019-01-10T13:07:51.881Z,21.82
2019-01-10T13:09:10.758Z,21.83
2019-01-10T13:10:19.697Z,21.79
2019-01-10T13:11:28.886Z,21.83
2019-01-10T13:12:38.373Z,21.77
2019-01-10T13:13:49.302Z,21.74
2019-01-10T13:15:00.758Z,21.74
2019-01-10T13:16:09.726Z,21.71
2019-01-10T13:17:19.655Z,21.72
2019-01-10T13:18:29.091Z,21.72
2019-01-10T13:19:38.535Z,21.72
2019-01-10T13:20:47.574Z,21.62
2019-01-10T13:21:57.040Z,21.65
2019-01-10T13:23:06.262Z,21.62
2019-01-10T13:24:16.217Z,21.64
2019-01-10T13:25:25.407Z,21.64
2019-01-10T13:26:34.909Z,21.62
2019-01-10T13:27:44.092Z,21.62
2019-01-10T13:28:53.525Z,21.53
2019-01-10T13:30:02.547Z,21.53
2019-01-10T13:31:11.973Z,21.52
2019-01-10T13:32:21.171Z,21.46
2019-01-10T13:33:31.152Z,21.56
2019-01-10T13:34:40.846Z,21.49
2019-01-10T13:35:50.606Z,21.49
2019-01-10T13:36:59.855Z,21.58
2019-01-10T13:38:09.801Z,21.53
2019-01-10T13:39:18.998Z,21.5
2019-01-10T13:40:28.687Z,21.52
2019-01-10T13:41:38.111Z,21.44
2019-01-10T13:42:47.050Z,21.47
2019-01-10T13:43:55.993Z,21.46
2019-01-10T13:45:05.416Z,21.43
2019-01-10T13:46:14.845Z,21.43
2019-01-10T13:47:24.271Z,21.44
2019-01-10T13:48:33.214Z,21.4
2019-01-10T13:49:42.668Z,21.47
2019-01-10T13:50:51.844Z,21.4
2019-01-10T13:52:02.971Z,21.43
2019-01-10T13:53:12.393Z,21.47
2019-01-10T13:54:21.325Z,21.46
2019-01-10T13:55:30.762Z,21.47
2019-01-10T13:56:39.974Z,21.47
2019-01-10T13:57:49.164Z,21.59
2019-01-10T13:58:58.858Z,21.49
2019-01-10T14:00:08.813Z,21.52
2019-01-10T14:01:18.513Z,21.58
2019-01-10T14:02:27.467Z,21.59
2019-01-10T14:03:36.418Z,21.62
2019-01-10T14:04:45.647Z,21.62
2019-01-10T14:05:54.863Z,21.71
2019-01-10T14:07:04.316Z,21.69
2019-01-10T14:08:13.764Z,21.79
2019-01-10T14:09:23.697Z,21.86
2019-01-10T14:10:33.143Z,21.92
2019-01-10T14:11:42.093Z,21.79
2019-01-10T14:12:51.530Z,21.91
2019-01-10T14:14:00.737Z,21.91
2019-01-10T14:15:09.927Z,21.99
2019-01-10T14:16:19.109Z,21.99
2019-01-10T14:17:28.549Z,21.94
2019-01-10T14:18:37.748Z,21.94
2019-01-10T14:19:46.671Z,21.92
2019-01-10T14:20:55.852Z,21.99
2019-01-10T14:22:05.033Z,22.05
2019-01-10T14:23:14.733Z,21.96
2019-01-10T14:24:23.707Z,21.98
2019-01-10T14:25:32.648Z,22.03
2019-01-10T14:26:41.844Z,21.96
2019-01-10T14:27:51.048Z,21.94
2019-01-10T14:29:07.063Z,21.86
2019-01-10T14:30:16.496Z,22.03
2019-01-10T14:31:25.947Z,21.99
2019-01-10T14:32:34.621Z,21.84
2019-01-10T14:33:43.569Z,21.84
2019-01-10T14:34:52.503Z,21.91
2019-01-10T14:36:01.946Z,22.03
2019-01-10T14:37:11.140Z,21.96
2019-01-10T14:38:20.339Z,21.99
2019-01-10T14:39:29.556Z,21.86
2019-01-10T14:40:38.256Z,21.94
2019-01-10T14:41:47.201Z,21.88
2019-01-10T14:42:56.375Z,21.9
2019-01-10T14:44:05.815Z,21.83
2019-01-10T14:45:15.236Z,21.77
2019-01-10T14:46:24.187Z,21.9
2019-01-10T14:47:32.886Z,21.86
2019-01-10T14:48:42.099Z,21.88
2019-01-10T14:49:51.774Z,21.8
2019-01-10T14:51:00.734Z,21.79
2019-01-10T14:52:09.430Z,21.79
2019-01-10T14:53:18.611Z,21.83
2019-01-10T14:54:27.801Z,21.75
2019-01-10T14:55:37.245Z,21.71
2019-01-10T14:56:46.419Z,21.75
2019-01-10T14:57:55.600Z,21.65
2019-01-10T14:59:05.036Z,21.67